createdAt,value
2019-03-01T00:00:35.347Z,101065.40
2019-03-01T00:03:09.097Z,101061.90
2019-03-01T00:05:41.251Z,101055.28
2019-03-01T00:08:13.379Z,101056.17
2019-03-01T00:10:45.516Z,101054.84
2019-03-01T00:13:19.494Z,101051.77
2019-03-01T00:15:51.623Z,101059.23
2019-03-01T00:18:23.767Z,101049.12
2019-03-01T00:20:55.904Z,101049.12
2019-03-01T00:23:28.033Z,101051.34
2019-03-01T00:26:00.187Z,101050.87
2019-03-01T00:28:32.319Z,101047.37
2019-03-01T00:31:04.454Z,101044.28
2019-03-01T00:33:36.596Z,101046.48
2019-03-01T00:36:08.727Z,101042.08
2019-03-01T00:38:40.859Z,101046.92
2019-03-01T00:41:12.999Z,101045.61
2019-03-01T00:43:45.129Z,101047.80
2019-03-01T00:46:17.284Z,101042.53
2019-03-01T00:48:49.412Z,101040.31
2019-03-01T00:51:22.710Z,101044.27
2019-03-01T00:53:54.846Z,101040.33
2019-03-01T00:56:26.975Z,101044.28
2019-03-01T00:58:59.114Z,101043.83
2019-03-01T01:01:31.250Z,101046.05
2019-03-01T01:04:03.382Z,101045.16
2019-03-01T01:06:35.842Z,101041.20
2019-03-01T01:09:07.999Z,101035.48
2019-03-01T01:11:40.306Z,101042.08
2019-03-01T01:14:12.441Z,101039.85
2019-03-01T01:16:44.590Z,101034.16
2019-03-01T01:19:16.725Z,101032.83
2019-03-01T01:21:48.851Z,101037.22
2019-03-01T01:24:21.005Z,101033.27
2019-03-01T01:26:53.129Z,101029.30
2019-03-01T01:29:25.280Z,101030.17
2019-03-01T01:31:57.407Z,101032.39
2019-03-01T01:34:29.530Z,101029.73
2019-03-01T01:37:01.952Z,101032.80
2019-03-01T01:39:34.077Z,101027.98
2019-03-01T01:42:06.223Z,101026.21
2019-03-01T01:44:38.358Z,101026.23
2019-03-01T01:47:10.480Z,101024.89
2019-03-01T01:49:42.632Z,101020.06
2019-03-01T01:52:14.762Z,101024.89
2019-03-01T01:54:46.904Z,101022.67
2019-03-01T01:57:19.051Z,101025.31
2019-03-01T01:59:51.178Z,101015.66
2019-03-01T02:02:23.322Z,101016.08
2019-03-01T02:04:55.476Z,101012.14
2019-03-01T02:07:27.610Z,101014.32
2019-03-01T02:09:59.747Z,101009.03
2019-03-01T02:12:31.902Z,101013.89
2019-03-01T02:15:04.039Z,101008.59
2019-03-01T02:17:37.765Z,101010.36
2019-03-01T02:20:09.891Z,101016.05
2019-03-01T02:22:42.095Z,101015.61
2019-03-01T02:25:14.249Z,101016.47
2019-03-01T02:27:46.374Z,101016.47
2019-03-01T02:30:18.536Z,101016.45
2019-03-01T02:32:50.663Z,101007.67
2019-03-01T02:35:22.772Z,101011.62
2019-03-01T02:37:54.925Z,101012.94
2019-03-01T02:40:27.063Z,101016.44
2019-03-01T02:42:59.238Z,101015.57
2019-03-01T02:45:31.355Z,101012.03
2019-03-01T02:48:03.496Z,101019.48
2019-03-01T02:50:35.642Z,101018.19
2019-03-01T02:53:07.776Z,101019.48
2019-03-01T02:55:39.901Z,101021.70
2019-03-01T02:58:12.050Z,101022.56
2019-03-01T03:00:44.185Z,101016.39
2019-03-01T03:03:16.636Z,101021.24
2019-03-01T03:05:48.801Z,101021.66
2019-03-01T03:08:20.934Z,101022.53
2019-03-01T03:10:53.075Z,101033.52
2019-03-01T03:13:25.251Z,101030.00
2019-03-01T03:15:57.393Z,101026.46
2019-03-01T03:18:29.521Z,101021.62
2019-03-01T03:21:01.692Z,101024.70
2019-03-01T03:23:33.842Z,101023.36
2019-03-01T03:26:05.952Z,101019.86
2019-03-01T03:28:38.107Z,101020.73
2019-03-01T03:31:10.245Z,101021.59
2019-03-01T03:33:42.382Z,101025.53
2019-03-01T03:36:14.806Z,101025.52
2019-03-01T03:38:46.933Z,101024.66
2019-03-01T03:41:19.082Z,101023.31
2019-03-01T03:43:51.235Z,101027.70
2019-03-01T03:46:23.374Z,101027.25
2019-03-01T03:48:55.504Z,101029.02
2019-03-01T03:51:27.656Z,101026.36
2019-03-01T03:53:59.787Z,101023.27
2019-03-01T03:56:31.925Z,101024.17
2019-03-01T03:59:04.076Z,101024.16
2019-03-01T04:01:36.253Z,101025.91
2019-03-01T04:04:08.349Z,101021.05
2019-03-01T04:06:40.496Z,101029.38
2019-03-01T04:09:12.628Z,101026.75
2019-03-01T04:11:44.767Z,101020.15
2019-03-01T04:14:16.929Z,101026.75
2019-03-01T04:16:49.058Z,101030.67
2019-03-01T04:19:21.214Z,101035.05
2019-03-01T04:21:53.338Z,101043.39
2019-03-01T04:24:25.536Z,101042.97
2019-03-01T04:26:57.637Z,101048.22
2019-03-01T04:29:29.771Z,101045.12
2019-03-01T04:32:01.904Z,101037.66
2019-03-01T04:34:34.058Z,101046.00
2019-03-01T04:37:06.197Z,101049.07
2019-03-01T04:39:38.329Z,101049.93
2019-03-01T04:42:10.497Z,101053.86
2019-03-01T04:44:42.900Z,101055.62
2019-03-01T04:47:15.032Z,101057.80
2019-03-01T04:49:47.184Z,101053.42
2019-03-01T04:52:19.327Z,101053.40
2019-03-01T04:54:51.464Z,101065.22
2019-03-01T04:57:23.616Z,101069.64
2019-03-01T04:59:55.757Z,101070.50
2019-03-01T05:02:27.885Z,101071.36
2019-03-01T05:05:00.031Z,101071.80
2019-03-01T05:07:32.158Z,101068.71
2019-03-01T05:10:04.290Z,101069.14
2019-03-01T05:12:36.435Z,101075.73
2019-03-01T05:15:08.585Z,101077.91
2019-03-01T05:17:40.700Z,101082.69
2019-03-01T05:20:12.848Z,101083.11
2019-03-01T05:22:44.986Z,101090.59
2019-03-01T05:25:17.137Z,101086.19
2019-03-01T05:27:50.337Z,101093.63
2019-03-01T05:30:22.478Z,101092.73
2019-03-01T05:32:54.647Z,101085.28
2019-03-01T05:35:26.756Z,101089.23
2019-03-01T05:37:58.899Z,101095.81
2019-03-01T05:40:31.030Z,101094.97
2019-03-01T05:43:03.174Z,101092.88
2019-03-01T05:45:35.312Z,101101.34
2019-03-01T05:48:07.445Z,101105.00
2019-03-01T05:50:39.579Z,101101.59
2019-03-01T05:53:11.744Z,101106.09
2019-03-01T05:55:43.861Z,101109.71
2019-03-01T05:58:16.679Z,101103.61
2019-03-01T06:00:49.019Z,101101.90
2019-03-01T06:03:21.146Z,101105.44
2019-03-01T06:05:53.285Z,101103.70
2019-03-01T06:08:25.446Z,101107.66
2019-03-01T06:10:57.605Z,101122.17
2019-03-01T06:13:29.754Z,101119.09
2019-03-01T06:16:01.892Z,101125.25
2019-03-01T06:18:34.026Z,101130.57
2019-03-01T06:21:06.173Z,101130.12
2019-03-01T06:23:38.316Z,101127.48
2019-03-01T06:26:10.445Z,101131.46
2019-03-01T06:28:42.584Z,101137.59
2019-03-01T06:31:14.721Z,101143.33
2019-03-01T06:33:47.847Z,101144.18
2019-03-01T06:36:19.971Z,101146.39
2019-03-01T06:38:52.099Z,101153.45
2019-03-01T06:41:24.249Z,101162.25
2019-03-01T06:43:56.382Z,101157.42
2019-03-01T06:46:28.518Z,101162.70
2019-03-01T06:49:00.669Z,101174.16
2019-03-01T06:51:32.805Z,101175.02
2019-03-01T06:54:04.939Z,101180.32
2019-03-01T06:56:37.099Z,101178.11
2019-03-01T06:59:09.242Z,101191.73
2019-03-01T07:01:41.386Z,101198.33
2019-03-01T07:04:13.537Z,101201.88
2019-03-01T07:06:45.666Z,101213.75
2019-03-01T07:09:17.805Z,101219.46
2019-03-01T07:11:49.932Z,101228.27
2019-03-01T07:14:22.075Z,101225.59
2019-03-01T07:16:54.209Z,101220.70
2019-03-01T07:19:26.341Z,101226.89
2019-03-01T07:21:58.480Z,101224.20
2019-03-01T07:24:30.621Z,101226.38
2019-03-01T07:27:02.746Z,101230.75
2019-03-01T07:29:34.897Z,101223.69
2019-03-01T07:32:07.033Z,101229.40
2019-03-01T07:34:39.240Z,101236.91
2019-03-01T07:37:11.389Z,101248.84
2019-03-01T07:39:43.521Z,101254.59
2019-03-01T07:42:15.654Z,101259.48
2019-03-01T07:44:47.795Z,101262.55
2019-03-01T07:47:19.931Z,101270.05
2019-03-01T07:49:52.072Z,101269.17
2019-03-01T07:52:24.220Z,101288.58
2019-03-01T07:54:56.358Z,101285.03
2019-03-01T07:57:28.495Z,101289.45
2019-03-01T08:00:01.613Z,101290.33
2019-03-01T08:02:35.887Z,101296.91
2019-03-01T08:05:09.487Z,101297.36
2019-03-01T08:07:41.613Z,101294.25
2019-03-01T08:10:20.859Z,101306.16
2019-03-01T08:12:47.874Z,101306.62
2019-03-01T08:15:20.125Z,101313.70
2019-03-01T08:17:52.257Z,101318.14
2019-03-01T08:20:24.390Z,101326.10
2019-03-01T08:22:59.465Z,101324.78
2019-03-01T08:25:30.362Z,101343.80
2019-03-01T08:28:02.515Z,101342.91
2019-03-01T08:30:35.803Z,101351.73
2019-03-01T08:33:08.019Z,101357.05
2019-03-01T08:35:40.097Z,101361.00
2019-03-01T08:38:12.222Z,101372.44
2019-03-01T08:40:46.599Z,101375.05
2019-03-01T08:43:18.203Z,101380.33
2019-03-01T08:45:50.344Z,101381.61
2019-03-01T08:48:22.478Z,101389.94
2019-03-01T08:50:54.604Z,101387.27
2019-03-01T08:53:26.756Z,101397.36
2019-03-01T08:55:58.890Z,101405.22
2019-03-01T08:58:31.019Z,101402.55
2019-03-01T09:01:06.947Z,101402.94
2019-03-01T09:03:37.058Z,101427.11
2019-03-01T09:06:09.221Z,101435.43
2019-03-01T09:08:42.996Z,101440.22
2019-03-01T09:11:15.184Z,101441.97
2019-03-01T09:13:47.316Z,101441.91
2019-03-01T09:16:19.440Z,101444.08
2019-03-01T09:18:51.932Z,101453.27
2019-03-01T09:21:24.066Z,101465.09
2019-03-01T09:23:56.199Z,101466.40
2019-03-01T09:26:28.349Z,101476.45
2019-03-01T09:29:00.478Z,101482.13
2019-03-01T09:31:32.604Z,101484.29
2019-03-01T09:34:06.191Z,101492.61
2019-03-01T09:36:38.557Z,101485.56
2019-03-01T09:39:10.708Z,101490.36
2019-03-01T09:41:42.831Z,101500.88
2019-03-01T09:44:14.954Z,101502.59
2019-03-01T09:46:47.104Z,101507.84
2019-03-01T09:49:21.413Z,101506.03
2019-03-01T09:51:53.075Z,101513.92
2019-03-01T09:54:25.212Z,101518.73
2019-03-01T09:56:57.329Z,101528.40
2019-03-01T09:59:30.530Z,101528.34
2019-03-01T10:02:02.664Z,101530.08
2019-03-01T10:04:34.794Z,101536.64
2019-03-01T10:07:06.928Z,101538.83
2019-03-01T10:09:39.125Z,101540.11
2019-03-01T10:12:11.251Z,101540.97
2019-03-01T10:14:43.398Z,101536.98
2019-03-01T10:17:15.529Z,101541.80
2019-03-01T10:19:47.657Z,101545.75
2019-03-01T10:22:19.809Z,101547.06
2019-03-01T10:24:51.948Z,101551.45
2019-03-01T10:27:24.088Z,101566.80
2019-03-01T10:29:56.230Z,101571.65
2019-03-01T10:32:28.364Z,101574.25
2019-03-01T10:35:00.492Z,101579.06
2019-03-01T10:37:32.624Z,101573.36
2019-03-01T10:40:04.750Z,101578.59
2019-03-01T10:42:36.881Z,101581.23
2019-03-01T10:45:09.010Z,101585.19
2019-03-01T10:47:41.143Z,101583.44
2019-03-01T10:50:13.265Z,101582.55
2019-03-01T10:52:45.415Z,101584.33
2019-03-01T10:55:17.575Z,101589.17
2019-03-01T10:57:49.696Z,101590.92
2019-03-01T11:00:21.858Z,101588.28
2019-03-01T11:02:53.987Z,101597.55
2019-03-01T11:05:26.116Z,101593.13
2019-03-01T11:07:58.270Z,101606.73
2019-03-01T11:10:30.387Z,101606.31
2019-03-01T11:13:02.515Z,101610.27
2019-03-01T11:15:34.675Z,101606.70
2019-03-01T11:18:06.797Z,101600.53
2019-03-01T11:20:38.947Z,101603.60
2019-03-01T11:23:11.076Z,101602.75
2019-03-01T11:25:43.203Z,101613.72
2019-03-01T11:28:15.339Z,101603.64
2019-03-01T11:30:47.473Z,101604.99
2019-03-01T11:33:19.591Z,101600.58
2019-03-01T11:35:52.040Z,101613.75
2019-03-01T11:38:24.148Z,101612.01
2019-03-01T11:40:56.278Z,101602.32
2019-03-01T11:43:28.425Z,101598.36
2019-03-01T11:46:00.811Z,101597.48
2019-03-01T11:48:33.059Z,101600.53
2019-03-01T11:51:05.225Z,101604.95
2019-03-01T11:53:37.353Z,101604.49
2019-03-01T11:56:09.475Z,101604.06
2019-03-01T11:58:41.617Z,101606.27
2019-03-01T12:01:17.227Z,101603.21
2019-03-01T12:03:47.880Z,101608.55
2019-03-01T12:06:20.006Z,101602.39
2019-03-01T12:08:52.146Z,101601.50
2019-03-01T12:11:24.273Z,101595.38
2019-03-01T12:13:56.401Z,101599.75
2019-03-01T12:16:28.542Z,101608.95
2019-03-01T12:19:00.675Z,101625.22
2019-03-01T12:21:32.793Z,101621.27
2019-03-01T12:24:04.923Z,101620.80
2019-03-01T12:26:37.043Z,101623.87
2019-03-01T12:29:09.170Z,101622.98
2019-03-01T12:31:41.308Z,101614.64
2019-03-01T12:34:13.427Z,101620.34
2019-03-01T12:36:45.551Z,101615.03
2019-03-01T12:39:17.761Z,101623.80
2019-03-01T12:41:50.175Z,101620.70
2019-03-01T12:44:22.303Z,101614.50
2019-03-01T12:46:54.456Z,101622.84
2019-03-01T12:49:26.587Z,101622.37
2019-03-01T12:51:58.730Z,101630.27
2019-03-01T12:54:30.860Z,101636.36
2019-03-01T12:57:02.981Z,101649.96
2019-03-01T12:59:35.110Z,101646.47
2019-03-01T13:02:07.247Z,101642.48
2019-03-01T13:04:39.375Z,101645.54
2019-03-01T13:07:13.238Z,101650.81
2019-03-01T13:09:45.340Z,101644.19
2019-03-01T13:12:17.521Z,101651.20
2019-03-01T13:14:49.658Z,101653.37
2019-03-01T13:17:21.799Z,101656.89
2019-03-01T13:19:53.928Z,101655.58
2019-03-01T13:22:27.931Z,101660.80
2019-03-01T13:24:59.903Z,101654.22
2019-03-01T13:27:32.027Z,101651.13
2019-03-01T13:30:04.176Z,101652.91
2019-03-01T13:32:36.295Z,101655.50
2019-03-01T13:35:10.210Z,101655.50
2019-03-01T13:37:42.259Z,101655.97
2019-03-01T13:40:14.393Z,101650.34
2019-03-01T13:42:47.260Z,101650.50
2019-03-01T13:45:20.353Z,101654.30
2019-03-01T13:47:52.516Z,101658.07
2019-03-01T13:50:24.651Z,101657.45
2019-03-01T13:52:56.804Z,101657.27
2019-03-01T13:55:28.926Z,101659.66
2019-03-01T13:58:01.060Z,101659.84
2019-03-01T14:00:33.205Z,101667.46
2019-03-01T14:03:05.342Z,101670.66
2019-03-01T14:05:37.472Z,101671.70
2019-03-01T14:08:09.635Z,101677.06
2019-03-01T14:10:43.146Z,101683.75
2019-03-01T14:13:15.751Z,101686.03
2019-03-01T14:15:47.896Z,101683.89
2019-03-01T14:18:20.023Z,101685.72
2019-03-01T14:20:54.451Z,101696.36
2019-03-01T14:23:26.041Z,101689.33
2019-03-01T14:25:58.430Z,101695.10
2019-03-01T14:28:30.552Z,101700.88
2019-03-01T14:31:04.072Z,101693.39
2019-03-01T14:33:36.515Z,101693.38
2019-03-01T14:36:08.666Z,101695.10
2019-03-01T14:38:40.797Z,101694.62
2019-03-01T14:41:12.931Z,101693.72
2019-03-01T14:43:45.069Z,101691.96
2019-03-01T14:46:17.596Z,101692.41
2019-03-01T14:48:51.039Z,101695.09
2019-03-01T14:51:23.162Z,101698.20
2019-03-01T14:53:55.284Z,101708.44
2019-03-01T14:56:31.167Z,101709.34
2019-03-01T14:59:02.339Z,101712.92
2019-03-01T15:01:34.471Z,101704.99
2019-03-01T15:04:06.610Z,101713.86
2019-03-01T15:06:38.735Z,101719.19
2019-03-01T15:09:10.891Z,101713.91
2019-03-01T15:11:44.340Z,101712.17
2019-03-01T15:14:17.034Z,101713.53
2019-03-01T15:16:49.163Z,101714.87
2019-03-01T15:19:21.292Z,101713.12
2019-03-01T15:21:53.435Z,101712.23
2019-03-01T15:24:25.574Z,101712.26
2019-03-01T15:27:00.297Z,101716.69
2019-03-01T15:29:32.236Z,101714.04
2019-03-01T15:32:05.119Z,101714.02
2019-03-01T15:34:37.318Z,101711.37
2019-03-01T15:37:09.444Z,101713.58
2019-03-01T15:39:41.576Z,101717.52
2019-03-01T15:42:14.243Z,101722.36
2019-03-01T15:44:47.538Z,101723.23
2019-03-01T15:47:19.681Z,101715.76
2019-03-01T15:49:52.479Z,101722.36
2019-03-01T15:52:24.710Z,101719.73
2019-03-01T15:54:56.857Z,101719.73
2019-03-01T15:57:28.990Z,101713.55
2019-03-01T16:00:01.116Z,101714.45
2019-03-01T16:02:34.873Z,101713.56
2019-03-01T16:05:07.011Z,101713.12
2019-03-01T16:07:39.145Z,101723.30
2019-03-01T16:10:11.291Z,101726.83
2019-03-01T16:12:43.411Z,101733.05
2019-03-01T16:15:15.543Z,101726.39
2019-03-01T16:17:47.800Z,101729.93
2019-03-01T16:20:19.883Z,101739.63
2019-03-01T16:22:54.230Z,101742.70
2019-03-01T16:25:25.848Z,101743.55
2019-03-01T16:27:57.974Z,101743.99
2019-03-01T16:30:30.100Z,101739.55
2019-03-01T16:33:02.263Z,101745.73
2019-03-01T16:35:34.393Z,101747.10
2019-03-01T16:38:07.614Z,101745.34
2019-03-01T16:40:39.754Z,101748.87
2019-03-01T16:43:11.884Z,101751.53
2019-03-01T16:45:44.021Z,101750.66
2019-03-01T16:48:16.861Z,101755.94
2019-03-01T16:50:49.783Z,101754.62
2019-03-01T16:53:21.910Z,101756.33
2019-03-01T16:55:54.040Z,101764.70
2019-03-01T16:58:28.276Z,101762.91
2019-03-01T17:01:00.014Z,101761.16
2019-03-01T17:03:32.151Z,101761.13
2019-03-01T17:06:04.276Z,101760.70
2019-03-01T17:08:39.497Z,101755.39
2019-03-01T17:11:10.248Z,101762.91
2019-03-01T17:13:42.447Z,101756.33
2019-03-01T17:16:14.576Z,101758.51
2019-03-01T17:18:47.879Z,101752.34
2019-03-01T17:21:20.720Z,101758.92
2019-03-01T17:23:54.655Z,101755.39
2019-03-01T17:26:29.975Z,101764.19
2019-03-01T17:29:03.160Z,101765.48
2019-03-01T17:31:34.540Z,101766.80
2019-03-01T17:34:07.657Z,101765.47
2019-03-01T17:36:39.778Z,101768.98
2019-03-01T17:39:11.902Z,101762.37
2019-03-01T17:41:45.603Z,101759.78
2019-03-01T17:44:17.866Z,101758.89
2019-03-01T17:46:50.029Z,101762.02
2019-03-01T17:49:22.147Z,101766.39
2019-03-01T17:51:56.559Z,101769.48
2019-03-01T17:54:28.107Z,101770.78
2019-03-01T17:57:00.229Z,101774.73
2019-03-01T17:59:32.346Z,101775.58
2019-03-01T18:02:04.485Z,101777.76
2019-03-01T18:04:36.891Z,101787.03
2019-03-01T18:07:09.821Z,101783.06
2019-03-01T18:09:41.941Z,101792.77
2019-03-01T18:12:14.088Z,101785.27
2019-03-01T18:14:46.214Z,101793.25
2019-03-01T18:17:18.336Z,101789.73
2019-03-01T18:19:50.482Z,101796.77
2019-03-01T18:22:22.990Z,101791.02
2019-03-01T18:24:56.441Z,101783.05
2019-03-01T18:27:28.570Z,101786.11
2019-03-01T18:30:00.693Z,101788.75
2019-03-01T18:32:33.097Z,101787.38
2019-03-01T18:35:07.964Z,101786.07
2019-03-01T18:37:39.044Z,101787.83
2019-03-01T18:40:13.409Z,101784.72
2019-03-01T18:42:45.180Z,101785.14
2019-03-01T18:45:17.309Z,101783.77
2019-03-01T18:47:49.456Z,101781.50
2019-03-01T18:50:22.635Z,101780.59
2019-03-01T18:52:54.756Z,101773.95
2019-03-01T18:55:26.879Z,101770.88
2019-03-01T18:57:59.009Z,101767.34
2019-03-01T19:00:32.519Z,101773.11
2019-03-01T19:03:05.479Z,101768.73
2019-03-01T19:05:40.106Z,101770.09
2019-03-01T19:08:11.685Z,101774.12
2019-03-01T19:10:43.817Z,101771.94
2019-03-01T19:13:15.948Z,101778.55
2019-03-01T19:15:53.569Z,101774.99
2019-03-01T19:18:21.915Z,101778.03
2019-03-01T19:20:54.050Z,101769.16
2019-03-01T19:23:29.297Z,101772.25
2019-03-01T19:26:01.771Z,101770.92
2019-03-01T19:28:34.058Z,101776.67
2019-03-01T19:31:06.201Z,101780.66
2019-03-01T19:33:41.430Z,101781.12
2019-03-01T19:36:13.128Z,101782.08
2019-03-01T19:38:46.462Z,101781.67
2019-03-01T19:41:20.037Z,101781.23
2019-03-01T19:43:57.471Z,101777.25
2019-03-01T19:46:26.648Z,101781.66
2019-03-01T19:48:58.746Z,101781.12
2019-03-01T19:51:33.714Z,101786.39
2019-03-01T19:54:05.782Z,101784.19
2019-03-01T19:56:37.914Z,101782.86
2019-03-01T19:59:10.050Z,101785.53
2019-03-01T20:01:42.197Z,101785.95
2019-03-01T20:04:14.326Z,101789.91
2019-03-01T20:06:46.456Z,101788.58
2019-03-01T20:09:18.587Z,101791.61
2019-03-01T20:11:50.724Z,101790.27
2019-03-01T20:14:22.856Z,101790.67
2019-03-01T20:16:58.200Z,101786.28
2019-03-01T20:19:28.831Z,101788.03
2019-03-01T20:22:00.966Z,101790.73
2019-03-01T20:24:33.088Z,101788.98
2019-03-01T20:27:05.301Z,101785.93
2019-03-01T20:29:37.433Z,101784.61
2019-03-01T20:32:12.516Z,101781.50
2019-03-01T20:34:43.401Z,101785.02
2019-03-01T20:37:15.534Z,101782.80
2019-03-01T20:39:50.965Z,101783.20
2019-03-01T20:42:24.395Z,101793.31
2019-03-01T20:44:55.324Z,101788.92
2019-03-01T20:47:27.463Z,101788.03
2019-03-01T20:49:59.587Z,101787.14
2019-03-01T20:52:34.862Z,101787.13
2019-03-01T20:55:05.561Z,101784.45
2019-03-01T20:57:37.694Z,101788.80
2019-03-01T21:00:09.821Z,101798.91
2019-03-01T21:02:46.859Z,101791.88
2019-03-01T21:05:17.417Z,101791.82
2019-03-01T21:07:53.887Z,101792.72
2019-03-01T21:10:23.392Z,101790.97
2019-03-01T21:12:55.526Z,101790.96
2019-03-01T21:15:27.655Z,101789.69
2019-03-01T21:17:59.788Z,101789.27
2019-03-01T21:20:31.935Z,101787.99
2019-03-01T21:23:04.060Z,101793.78
2019-03-01T21:25:39.744Z,101792.48
2019-03-01T21:28:10.038Z,101794.23
2019-03-01T21:30:42.168Z,101795.13
2019-03-01T21:33:14.297Z,101787.17
2019-03-01T21:35:50.795Z,101791.98
2019-03-01T21:38:21.439Z,101793.28
2019-03-01T21:40:53.583Z,101787.11
2019-03-01T21:43:26.688Z,101785.78
2019-03-01T21:45:59.816Z,101783.55
2019-03-01T21:48:32.994Z,101782.21
2019-03-01T21:51:05.141Z,101775.95
2019-03-01T21:53:39.828Z,101777.24
2019-03-01T21:56:11.121Z,101782.91
2019-03-01T21:58:43.256Z,101778.44
2019-03-01T22:01:15.376Z,101782.33
2019-03-01T22:03:47.516Z,101774.75
2019-03-01T22:06:20.599Z,101782.66
2019-03-01T22:08:53.479Z,101780.40
2019-03-01T22:11:25.611Z,101782.91
2019-03-01T22:13:57.754Z,101785.50
2019-03-01T22:16:32.716Z,101782.80
2019-03-01T22:19:03.718Z,101782.28
2019-03-01T22:21:35.849Z,101781.79
2019-03-01T22:24:07.984Z,101776.45
2019-03-01T22:26:40.108Z,101780.80
2019-03-01T22:29:12.994Z,101782.92
2019-03-01T22:31:45.163Z,101774.08
2019-03-01T22:34:17.297Z,101772.27
2019-03-01T22:36:52.894Z,101764.70
2019-03-01T22:39:23.573Z,101772.13
2019-03-01T22:41:55.722Z,101770.34
2019-03-01T22:44:28.084Z,101768.06
2019-03-01T22:47:00.907Z,101775.05
2019-03-01T22:49:33.663Z,101771.05
2019-03-01T22:52:05.811Z,101762.64
2019-03-01T22:54:37.935Z,101759.08
2019-03-01T22:57:11.041Z,101759.47
2019-03-01T22:59:47.371Z,101764.70
2019-03-01T23:02:20.043Z,101761.14
2019-03-01T23:04:51.926Z,101763.31
2019-03-01T23:07:26.446Z,101768.98
2019-03-01T23:09:57.902Z,101763.67
2019-03-01T23:12:30.026Z,101763.62
2019-03-01T23:15:02.824Z,101759.17
2019-03-01T23:17:37.350Z,101755.17
2019-03-01T23:20:09.481Z,101759.13
2019-03-01T23:22:42.725Z,101756.88
2019-03-01T23:25:15.458Z,101759.02
2019-03-01T23:27:47.605Z,101757.23
2019-03-01T23:30:19.732Z,101762.47
2019-03-01T23:32:52.361Z,101758.89
2019-03-01T23:35:25.698Z,101759.78
2019-03-01T23:37:58.890Z,101753.58
2019-03-01T23:40:32.719Z,101759.66
2019-03-01T23:43:04.863Z,101753.06
2019-03-01T23:45:36.990Z,101750.39
2019-03-01T23:48:10.611Z,101745.51
2019-03-01T23:50:42.942Z,101745.47
2019-03-01T23:53:15.064Z,101741.51
2019-03-01T23:55:47.488Z,101736.62
2019-03-01T23:58:19.642Z,101729.52
